Aktualizace27-Dec-2013 12:01pm 
 
:.
METEOSTANICE CHUDCICE (CZ), Milan Kolar

Vývoj počasí za 24 hodin



Temp/Humidity last 24 hours


Čas Teplota Rychlost větru Směr větru Vlhkost Tlak D隝
11:01 16.2°C (61.2°F) 0.0km/h (0.0 mph) S 65% 1012.4hPa (29.90 inHg) 0.0mm (0.00 in.)
10:01 15.2°C (59.4 °F) 0.0km/h (0.0 mph) SW 72% 1012.3hPa (29.89 inHg) 0.0mm (0.00 in.)
09:01 13.3°C (55.9 °F) 0.0km/h (0.0 mph) SSW 77% 1012.5hPa (29.90 inHg) 0.0mm (0.00 in.)
08:01 12.1°C (53.8 °F) 0.0km/h (0.0 mph) ENE 78% 1011.9hPa (29.88 inHg) 0.0mm (0.00 in.)
07:01 11.2°C (52.2 °F) 0.0km/h (0.0 mph) S 77% 1012.0hPa (29.88 inHg) 0.0mm (0.00 in.)
06:01 10.7°C (51.3 °F) 0.0km/h (0.0 mph) ESE 78% 1011.4hPa (29.87 inHg) 0.0mm (0.00 in.)
05:01 10.4°C (50.7 °F) 0.0km/h (0.0 mph) ENE 78% 1011.2hPa (29.86 inHg) 0.0mm (0.00 in.)
04:01 10.2°C (50.4 °F) 0.0km/h (0.0 mph) NE 78% 1011.0hPa (29.85 inHg) 0.0mm (0.00 in.)
03:01 9.8°C (49.6 °F) 0.0km/h (0.0 mph) ENE 78% 1011.4hPa (29.87 inHg) 0.0mm (0.00 in.)
02:01 10.1°C (50.2 °F) 0.0km/h (0.0 mph) E 77% 1011.2hPa (29.86 inHg) 0.0mm (0.00 in.)
01:01 12.4°C (54.3 °F) 0.0km/h (0.0 mph) ESE 75% 1011.2hPa (29.86 inHg) 0.0mm (0.00 in.)
00:01 13.5°C (56.3 °F) 3.7km/h (2.3 mph) N 76% 1010.4hPa (29.84 inHg) 0.0mm (0.00 in.)
23:01 13.6°C (56.5 °F) 0.0km/h (0.0 mph) SSW 74% 1009.4hPa (29.81 inHg) 0.0mm (0.00 in.)
22:01 15.6°C (60.1 °F) 0.0km/h (0.0 mph) S 70% 1009.2hPa (29.80 inHg) 0.0mm (0.00 in.)
21:01 18.6°C (65.5 °F) 0.0km/h (0.0 mph) N 62% 1008.7hPa (29.79 inHg) 0.0mm (0.00 in.)
20:01 21.1°C (70.0 °F) 0.0km/h (0.0 mph) NNE 52% 1007.4hPa (29.75 inHg) 0.0mm (0.00 in.)
19:01 22.9°C (73.2 °F) 0.0km/h (0.0 mph) SSE 46% 1006.5hPa (29.72 inHg) 0.0mm (0.00 in.)
18:01 24.8°C (76.6 °F) 1.9km/h (1.2 mph) S 39% 1006.7hPa (29.73 inHg) 0.0mm (0.00 in.)
17:01 26.1°C (79.0 °F) 5.6km/h (3.5 mph) SSW 38% 1007.0hPa (29.74 inHg) 0.0mm (0.00 in.)
16:01 26.4°C (79.5 °F) 3.7km/h (2.3 mph) SSE 37% 1007.2hPa (29.74 inHg) 0.0mm (0.00 in.)
15:01 26.5°C (79.7 °F) 7.4km/h (4.6 mph) E 34% 1007.6hPa (29.75 inHg) 0.0mm (0.00 in.)
14:01 25.8°C (78.4 °F) 5.6km/h (3.5 mph) NNW 36% 1008.1hPa (29.77 inHg) 0.0mm (0.00 in.)
13:01 25.8°C (78.4 °F) 3.7km/h (2.3 mph) SSE 40% 1008.7hPa (29.79 inHg) 0.0mm (0.00 in.)
12:01 24.4°C (75.9 °F) 5.6km/h (3.5 mph) S 50% 1009.1hPa (29.80 inHg) 0.0mm (0.00 in.)

Barometer last 24 hours

Rain last 24 hours

Avg Windspeed last 24 hours

Š 2008-2017, Ing.Milan Kolář, Meteostanice WS 2350, La Crosse Technology